Informes METAR cercanos

 

LEZL - Sevilla
Actualización: 19/07/2024 05:00
Despejado
Despejado
 Viento del SO
Viento: SO 6 km/h
Temperatura: 25°C
Rocío: 16°C
Humedad: 57%
Barómetro: 1016 hPa
Resumen: Despejado
Visibility: greater than 10 km
2024/07/19 03:00 LEZL 190300Z AUTO 22003KT CAVOK 25/16 Q1016
LEMO - Morón, Sevilla
Actualización: 19/07/2024 05:00
Despejado
Despejado
 Viento del SE
Viento: SE 9 km/h
Temperatura: 23°C
Rocío: 17°C
Humedad: 69%
Barómetro: 1017 hPa
Resumen: Despejado
Visibility: greater than 10 km
2024/07/19 03:00 LEMO 190300Z 14005KT CAVOK 23/17 Q1017 NOSIG
 
LEJR - Jeréz, Cádiz
Actualización: 19/07/2024 05:00
Despejado
Despejado
 Viento del N
Viento: N 7 km/h
Temperatura: 20°C
Rocío: 17°C
Humedad: 83%
Barómetro: 1016 hPa
Resumen: Despejado
Visibility: greater than 10 km
2024/07/19 03:00 LEJR 190300Z AUTO 36004KT CAVOK 20/17 Q1016
LERT - Rota. Cádiz
Actualización: 19/07/2024 05:00
Despejado
Despejado
 Viento del NE
Viento: NE 9 km/h
Temperatura: 21°C
Rocío: 18°C
Humedad: 83%
Barómetro: 1016 hPa
Resumen: Despejado
Visibility: greater than 10 km
2024/07/19 03:00 LERT 190300Z 04005KT CAVOK 21/18 Q1016 NOSIG
 
LEMG - Málaga
Actualización: 19/07/2024 05:00
Despejado
Despejado
 Viento del ONO
Viento: ONO 9 km/h
Temperatura: 23°C
Rocío: 20°C
Humedad: 83%
Barómetro: 1018 hPa
Resumen: Despejado
Visibility: greater than 10 km
2024/07/19 03:00 LEMG 190300Z 29005KT CAVOK 23/20 Q1018 NOSIG
LEBA - Córdoba
Actualización: 19/07/2024 05:00
Despejado
Despejado
 Viento del varies
Viento: varies 2 km/h
Temperatura: 21°C
Rocío: 15°C
Humedad: 69%
Barómetro: 1017 hPa
Resumen: Despejado
Visibility: greater than 10 km
2024/07/19 03:00 LEBA 190300Z AUTO VRB01KT CAVOK 21/15 Q1017
 
LEGR - Granada
Actualización: 19/07/2024 05:00
Despejado
Despejado
 Viento del calm
Viento: Calma
Temperatura: 23°C
Rocío: 15°C
Humedad: 61%
Barómetro: 1020 hPa
Resumen: Despejado
Visibility: greater than 10 km
2024/07/19 03:00 LEGR 190300Z AUTO 00000KT CAVOK 23/15 Q1020
LEAM - Almería
Actualización: 19/07/2024 05:00
Despejado
Despejado
 Viento del calm
Viento: Calma
Temperatura: 25°C
Rocío: 23°C
Humedad: 89%
Barómetro: 1017 hPa
Resumen: Despejado
Visibility: greater than 10 km
2024/07/19 03:00 LEAM 190300Z 00000KT CAVOK 25/23 Q1017
 
LEMD - Madrid/Barajas
Actualización: 19/07/2024 05:00
Despejado
Despejado
 Viento del N
Viento: N 6 km/h
Temperatura: 21°C
Rocío: 7°C
Humedad: 40%
Barómetro: 1020 hPa
Resumen: Despejado
Visibility: greater than 10 km
2024/07/19 03:00 LEMD 190300Z 35003KT CAVOK 21/07 Q1020 NOSIG
LEBL - Barcelona
Actualización: 19/07/2024 05:00
Despejado
Despejado
 Viento del S
Viento: S 9 km/h
Temperatura: 25°C
Rocío: 21°C
Humedad: 79%
Barómetro: 1017 hPa
Resumen: Despejado
Visibility: greater than 10 km
2024/07/19 03:00 LEBL 190300Z 19005KT 160V220 CAVOK 25/21 Q1017 NOSIG